sensor_id;sensor_type;location;lat;lon;timestamp;P1;durP1;ratioP1;P2;durP2;ratioP2
4696;SDS011;2362;50.780;0.292;2023-07-13T00:00:25;53.10;;;6.97;;
4696;SDS011;2362;50.780;0.292;2023-07-13T00:02:51;44.47;;;5.85;;
4696;SDS011;2362;50.780;0.292;2023-07-13T00:05:20;36.92;;;6.13;;
4696;SDS011;2362;50.780;0.292;2023-07-13T00:07:46;34.35;;;6.00;;
4696;SDS011;2362;50.780;0.292;2023-07-13T00:10:13;45.92;;;7.22;;
4696;SDS011;2362;50.780;0.292;2023-07-13T00:12:39;46.70;;;6.15;;
4696;SDS011;2362;50.780;0.292;2023-07-13T00:15:07;48.88;;;7.70;;
4696;SDS011;2362;50.780;0.292;2023-07-13T00:17:41;38.13;;;6.55;;
4696;SDS011;2362;50.780;0.292;2023-07-13T00:20:09;44.78;;;6.95;;
4696;SDS011;2362;50.780;0.292;2023-07-13T00:22:36;59.80;;;7.07;;
4696;SDS011;2362;50.780;0.292;2023-07-13T00:25:02;40.10;;;6.35;;
4696;SDS011;2362;50.780;0.292;2023-07-13T00:27:28;43.70;;;7.03;;
4696;SDS011;2362;50.780;0.292;2023-07-13T00:29:56;49.85;;;5.85;;
4696;SDS011;2362;50.780;0.292;2023-07-13T00:32:22;49.95;;;6.47;;
4696;SDS011;2362;50.780;0.292;2023-07-13T00:34:50;42.53;;;6.22;;
4696;SDS011;2362;50.780;0.292;2023-07-13T00:37:16;34.05;;;5.95;;
4696;SDS011;2362;50.780;0.292;2023-07-13T00:39:42;43.60;;;6.75;;
4696;SDS011;2362;50.780;0.292;2023-07-13T00:42:08;36.08;;;5.78;;
4696;SDS011;2362;50.780;0.292;2023-07-13T00:44:34;33.75;;;6.30;;
4696;SDS011;2362;50.780;0.292;2023-07-13T00:47:00;30.25;;;5.07;;
4696;SDS011;2362;50.780;0.292;2023-07-13T00:49:26;39.45;;;5.72;;
4696;SDS011;2362;50.780;0.292;2023-07-13T00:54:23;43.47;;;5.97;;
4696;SDS011;2362;50.780;0.292;2023-07-13T00:56:55;39.50;;;6.00;;
4696;SDS011;2362;50.780;0.292;2023-07-13T00:59:25;33.75;;;5.93;;
4696;SDS011;2362;50.780;0.292;2023-07-13T01:01:51;30.90;;;6.13;;
4696;SDS011;2362;50.780;0.292;2023-07-13T01:04:18;35.40;;;4.97;;
4696;SDS011;2362;50.780;0.292;2023-07-13T01:06:46;47.35;;;7.15;;
4696;SDS011;2362;50.780;0.292;2023-07-13T01:09:13;27.92;;;5.65;;
4696;SDS011;2362;50.780;0.292;2023-07-13T01:11:39;30.92;;;4.97;;
4696;SDS011;2362;50.780;0.292;2023-07-13T01:14:06;34.13;;;5.45;;
4696;SDS011;2362;50.780;0.292;2023-07-13T01:16:33;34.83;;;5.32;;
4696;SDS011;2362;50.780;0.292;2023-07-13T01:19:00;34.70;;;5.55;;
4696;SDS011;2362;50.780;0.292;2023-07-13T01:21:28;38.00;;;5.28;;
4696;SDS011;2362;50.780;0.292;2023-07-13T01:23:55;33.10;;;5.65;;
4696;SDS011;2362;50.780;0.292;2023-07-13T01:26:21;42.78;;;6.70;;
4696;SDS011;2362;50.780;0.292;2023-07-13T01:28:47;26.40;;;5.68;;
4696;SDS011;2362;50.780;0.292;2023-07-13T01:31:12;34.45;;;4.68;;
4696;SDS011;2362;50.780;0.292;2023-07-13T01:33:39;31.20;;;5.10;;
4696;SDS011;2362;50.780;0.292;2023-07-13T01:36:08;35.13;;;5.07;;
4696;SDS011;2362;50.780;0.292;2023-07-13T01:38:35;31.30;;;4.63;;
4696;SDS011;2362;50.780;0.292;2023-07-13T01:41:02;32.03;;;5.28;;
4696;SDS011;2362;50.780;0.292;2023-07-13T01:43:28;31.35;;;5.38;;
4696;SDS011;2362;50.780;0.292;2023-07-13T01:45:53;37.65;;;5.07;;
4696;SDS011;2362;50.780;0.292;2023-07-13T01:48:19;30.70;;;4.47;;
4696;SDS011;2362;50.780;0.292;2023-07-13T01:50:45;32.58;;;4.75;;
4696;SDS011;2362;50.780;0.292;2023-07-13T01:53:12;22.27;;;4.70;;
4696;SDS011;2362;50.780;0.292;2023-07-13T01:55:37;22.30;;;4.57;;
4696;SDS011;2362;50.780;0.292;2023-07-13T01:58:03;17.65;;;4.85;;
4696;SDS011;2362;50.780;0.292;2023-07-13T02:00:29;19.55;;;3.78;;
4696;SDS011;2362;50.780;0.292;2023-07-13T02:02:55;34.20;;;5.28;;
4696;SDS011;2362;50.780;0.292;2023-07-13T02:05:21;24.35;;;4.10;;
4696;SDS011;2362;50.780;0.292;2023-07-13T02:07:47;31.67;;;5.03;;
4696;SDS011;2362;50.780;0.292;2023-07-13T02:10:13;24.58;;;4.35;;
4696;SDS011;2362;50.780;0.292;2023-07-13T02:12:39;18.85;;;3.38;;
4696;SDS011;2362;50.780;0.292;2023-07-13T02:15:06;15.65;;;2.85;;
4696;SDS011;2362;50.780;0.292;2023-07-13T02:17:33;21.60;;;4.07;;
4696;SDS011;2362;50.780;0.292;2023-07-13T02:19:59;15.63;;;4.50;;
4696;SDS011;2362;50.780;0.292;2023-07-13T02:22:25;23.08;;;4.13;;
4696;SDS011;2362;50.780;0.292;2023-07-13T02:24:51;19.13;;;3.97;;
4696;SDS011;2362;50.780;0.292;2023-07-13T02:27:17;27.65;;;4.30;;
4696;SDS011;2362;50.780;0.292;2023-07-13T02:29:43;23.15;;;4.15;;
4696;SDS011;2362;50.780;0.292;2023-07-13T02:32:08;16.08;;;3.58;;
4696;SDS011;2362;50.780;0.292;2023-07-13T02:34:35;20.60;;;3.55;;
4696;SDS011;2362;50.780;0.292;2023-07-13T02:37:00;19.88;;;3.88;;
4696;SDS011;2362;50.780;0.292;2023-07-13T02:39:26;23.10;;;3.40;;
4696;SDS011;2362;50.780;0.292;2023-07-13T02:41:52;18.88;;;4.32;;
4696;SDS011;2362;50.780;0.292;2023-07-13T02:44:17;21.05;;;4.47;;
4696;SDS011;2362;50.780;0.292;2023-07-13T02:46:43;25.63;;;3.75;;
4696;SDS011;2362;50.780;0.292;2023-07-13T02:49:09;21.30;;;4.03;;
4696;SDS011;2362;50.780;0.292;2023-07-13T02:51:35;15.75;;;3.70;;
4696;SDS011;2362;50.780;0.292;2023-07-13T02:54:01;18.90;;;4.00;;
4696;SDS011;2362;50.780;0.292;2023-07-13T02:56:28;15.30;;;3.15;;
4696;SDS011;2362;50.780;0.292;2023-07-13T02:58:55;20.08;;;4.00;;
4696;SDS011;2362;50.780;0.292;2023-07-13T03:01:21;13.35;;;3.20;;
4696;SDS011;2362;50.780;0.292;2023-07-13T03:03:48;22.15;;;3.80;;
4696;SDS011;2362;50.780;0.292;2023-07-13T03:06:15;22.15;;;3.78;;
4696;SDS011;2362;50.780;0.292;2023-07-13T03:08:41;16.05;;;3.00;;
4696;SDS011;2362;50.780;0.292;2023-07-13T03:11:09;21.85;;;3.20;;
4696;SDS011;2362;50.780;0.292;2023-07-13T03:13:37;16.45;;;3.35;;
4696;SDS011;2362;50.780;0.292;2023-07-13T03:16:04;13.00;;;3.17;;
4696;SDS011;2362;50.780;0.292;2023-07-13T03:18:30;14.05;;;3.15;;
4696;SDS011;2362;50.780;0.292;2023-07-13T03:20:57;13.93;;;3.03;;
4696;SDS011;2362;50.780;0.292;2023-07-13T03:23:22;17.17;;;3.33;;
4696;SDS011;2362;50.780;0.292;2023-07-13T03:25:49;13.82;;;2.95;;
4696;SDS011;2362;50.780;0.292;2023-07-13T03:28:15;15.07;;;3.60;;
4696;SDS011;2362;50.780;0.292;2023-07-13T03:30:41;18.25;;;2.80;;
4696;SDS011;2362;50.780;0.292;2023-07-13T03:33:07;19.95;;;3.15;;
4696;SDS011;2362;50.780;0.292;2023-07-13T03:35:33;21.13;;;3.88;;
4696;SDS011;2362;50.780;0.292;2023-07-13T03:37:59;12.80;;;3.53;;
4696;SDS011;2362;50.780;0.292;2023-07-13T03:40:26;14.77;;;3.10;;
4696;SDS011;2362;50.780;0.292;2023-07-13T03:42:52;12.98;;;3.00;;
4696;SDS011;2362;50.780;0.292;2023-07-13T03:45:18;23.35;;;3.92;;
4696;SDS011;2362;50.780;0.292;2023-07-13T03:47:44;21.63;;;3.90;;
4696;SDS011;2362;50.780;0.292;2023-07-13T03:50:10;15.75;;;3.60;;
4696;SDS011;2362;50.780;0.292;2023-07-13T03:52:36;21.88;;;3.53;;
4696;SDS011;2362;50.780;0.292;2023-07-13T03:55:02;33.00;;;4.05;;
4696;SDS011;2362;50.780;0.292;2023-07-13T03:57:28;17.77;;;3.78;;
4696;SDS011;2362;50.780;0.292;2023-07-13T03:59:54;18.13;;;3.28;;
4696;SDS011;2362;50.780;0.292;2023-07-13T04:02:20;22.75;;;3.25;;
4696;SDS011;2362;50.780;0.292;2023-07-13T04:04:45;26.73;;;4.30;;
4696;SDS011;2362;50.780;0.292;2023-07-13T04:07:11;16.80;;;4.55;;
4696;SDS011;2362;50.780;0.292;2023-07-13T04:09:37;22.55;;;3.50;;
4696;SDS011;2362;50.780;0.292;2023-07-13T04:12:03;15.25;;;3.83;;
4696;SDS011;2362;50.780;0.292;2023-07-13T04:14:29;19.58;;;3.78;;
4696;SDS011;2362;50.780;0.292;2023-07-13T04:16:55;12.00;;;3.15;;
4696;SDS011;2362;50.780;0.292;2023-07-13T04:19:21;16.17;;;3.55;;
4696;SDS011;2362;50.780;0.292;2023-07-13T04:21:46;23.55;;;3.65;;
4696;SDS011;2362;50.780;0.292;2023-07-13T04:24:12;17.38;;;3.60;;
4696;SDS011;2362;50.780;0.292;2023-07-13T04:26:38;20.58;;;3.42;;
4696;SDS011;2362;50.780;0.292;2023-07-13T04:29:05;18.42;;;2.78;;
4696;SDS011;2362;50.780;0.292;2023-07-13T04:31:31;13.35;;;2.65;;
4696;SDS011;2362;50.780;0.292;2023-07-13T04:33:58;18.88;;;2.70;;
4696;SDS011;2362;50.780;0.292;2023-07-13T04:36:24;19.52;;;3.30;;
4696;SDS011;2362;50.780;0.292;2023-07-13T04:38:53;19.35;;;3.25;;
4696;SDS011;2362;50.780;0.292;2023-07-13T04:41:20;23.23;;;3.22;;
4696;SDS011;2362;50.780;0.292;2023-07-13T04:43:46;17.00;;;2.40;;
4696;SDS011;2362;50.780;0.292;2023-07-13T04:46:14;34.55;;;4.53;;
4696;SDS011;2362;50.780;0.292;2023-07-13T04:48:42;18.50;;;3.75;;
4696;SDS011;2362;50.780;0.292;2023-07-13T04:51:08;24.83;;;3.95;;
4696;SDS011;2362;50.780;0.292;2023-07-13T04:53:34;27.10;;;5.03;;
4696;SDS011;2362;50.780;0.292;2023-07-13T04:56:00;29.33;;;4.47;;
4696;SDS011;2362;50.780;0.292;2023-07-13T04:58:27;25.30;;;4.43;;
4696;SDS011;2362;50.780;0.292;2023-07-13T05:00:53;29.27;;;3.97;;
4696;SDS011;2362;50.780;0.292;2023-07-13T05:03:24;29.20;;;5.60;;
4696;SDS011;2362;50.780;0.292;2023-07-13T05:05:57;27.65;;;4.78;;
4696;SDS011;2362;50.780;0.292;2023-07-13T05:08:24;33.83;;;4.82;;
4696;SDS011;2362;50.780;0.292;2023-07-13T05:10:51;31.83;;;5.32;;
4696;SDS011;2362;50.780;0.292;2023-07-13T05:13:17;17.40;;;3.50;;
4696;SDS011;2362;50.780;0.292;2023-07-13T05:15:43;17.08;;;2.92;;
4696;SDS011;2362;50.780;0.292;2023-07-13T05:18:08;14.52;;;3.42;;
4696;SDS011;2362;50.780;0.292;2023-07-13T05:20:34;20.55;;;3.90;;
4696;SDS011;2362;50.780;0.292;2023-07-13T05:22:59;15.50;;;3.10;;
4696;SDS011;2362;50.780;0.292;2023-07-13T05:25:25;10.88;;;2.28;;
4696;SDS011;2362;50.780;0.292;2023-07-13T05:27:51;12.88;;;2.75;;
4696;SDS011;2362;50.780;0.292;2023-07-13T05:30:17;18.10;;;3.25;;
4696;SDS011;2362;50.780;0.292;2023-07-13T05:32:42;10.55;;;3.25;;
4696;SDS011;2362;50.780;0.292;2023-07-13T05:35:08;16.30;;;2.72;;
4696;SDS011;2362;50.780;0.292;2023-07-13T05:37:34;19.65;;;3.60;;
4696;SDS011;2362;50.780;0.292;2023-07-13T05:39:59;15.20;;;3.55;;
4696;SDS011;2362;50.780;0.292;2023-07-13T05:42:25;22.83;;;2.97;;
4696;SDS011;2362;50.780;0.292;2023-07-13T05:44:50;14.13;;;2.88;;
4696;SDS011;2362;50.780;0.292;2023-07-13T05:47:16;16.90;;;2.83;;
4696;SDS011;2362;50.780;0.292;2023-07-13T05:49:42;14.10;;;2.72;;
4696;SDS011;2362;50.780;0.292;2023-07-13T05:52:07;20.98;;;3.15;;
4696;SDS011;2362;50.780;0.292;2023-07-13T05:54:33;13.65;;;3.30;;
4696;SDS011;2362;50.780;0.292;2023-07-13T05:56:59;15.35;;;2.60;;
4696;SDS011;2362;50.780;0.292;2023-07-13T05:59:24;22.33;;;4.50;;
4696;SDS011;2362;50.780;0.292;2023-07-13T06:01:50;13.23;;;2.65;;
4696;SDS011;2362;50.780;0.292;2023-07-13T06:04:17;14.68;;;2.47;;
4696;SDS011;2362;50.780;0.292;2023-07-13T06:06:44;21.15;;;4.43;;
4696;SDS011;2362;50.780;0.292;2023-07-13T06:09:09;27.30;;;3.78;;
4696;SDS011;2362;50.780;0.292;2023-07-13T06:11:35;26.50;;;3.92;;
4696;SDS011;2362;50.780;0.292;2023-07-13T06:14:01;21.73;;;3.20;;
4696;SDS011;2362;50.780;0.292;2023-07-13T06:16:26;26.20;;;3.28;;
4696;SDS011;2362;50.780;0.292;2023-07-13T06:18:52;13.77;;;3.35;;
4696;SDS011;2362;50.780;0.292;2023-07-13T06:21:19;18.08;;;3.65;;
4696;SDS011;2362;50.780;0.292;2023-07-13T06:23:46;19.00;;;3.55;;
4696;SDS011;2362;50.780;0.292;2023-07-13T06:26:15;23.67;;;3.40;;
4696;SDS011;2362;50.780;0.292;2023-07-13T06:28:42;18.50;;;2.90;;
4696;SDS011;2362;50.780;0.292;2023-07-13T06:31:09;27.58;;;4.18;;
4696;SDS011;2362;50.780;0.292;2023-07-13T06:33:36;25.42;;;3.60;;
4696;SDS011;2362;50.780;0.292;2023-07-13T06:36:03;23.10;;;3.88;;
4696;SDS011;2362;50.780;0.292;2023-07-13T06:38:30;22.52;;;3.78;;
4696;SDS011;2362;50.780;0.292;2023-07-13T06:40:56;26.00;;;4.97;;
4696;SDS011;2362;50.780;0.292;2023-07-13T06:43:21;22.23;;;4.13;;
4696;SDS011;2362;50.780;0.292;2023-07-13T06:45:49;28.65;;;3.42;;
4696;SDS011;2362;50.780;0.292;2023-07-13T06:48:16;21.13;;;3.42;;
4696;SDS011;2362;50.780;0.292;2023-07-13T06:50:43;24.75;;;3.40;;
4696;SDS011;2362;50.780;0.292;2023-07-13T06:53:09;27.35;;;4.03;;
4696;SDS011;2362;50.780;0.292;2023-07-13T06:55:36;20.98;;;3.63;;
4696;SDS011;2362;50.780;0.292;2023-07-13T06:58:02;14.82;;;3.20;;
4696;SDS011;2362;50.780;0.292;2023-07-13T07:00:28;16.98;;;3.45;;
4696;SDS011;2362;50.780;0.292;2023-07-13T07:02:54;20.20;;;3.88;;
4696;SDS011;2362;50.780;0.292;2023-07-13T07:05:19;26.98;;;3.95;;
4696;SDS011;2362;50.780;0.292;2023-07-13T07:07:47;14.68;;;3.08;;
4696;SDS011;2362;50.780;0.292;2023-07-13T07:10:14;17.38;;;3.35;;
4696;SDS011;2362;50.780;0.292;2023-07-13T07:12:40;17.70;;;3.00;;
4696;SDS011;2362;50.780;0.292;2023-07-13T07:15:06;23.95;;;4.38;;
4696;SDS011;2362;50.780;0.292;2023-07-13T07:17:31;21.00;;;3.92;;
4696;SDS011;2362;50.780;0.292;2023-07-13T07:19:57;18.75;;;3.47;;
4696;SDS011;2362;50.780;0.292;2023-07-13T07:22:23;21.48;;;4.07;;
4696;SDS011;2362;50.780;0.292;2023-07-13T07:24:52;17.23;;;3.40;;
4696;SDS011;2362;50.780;0.292;2023-07-13T07:27:18;25.75;;;3.75;;
4696;SDS011;2362;50.780;0.292;2023-07-13T07:29:44;26.30;;;4.10;;
4696;SDS011;2362;50.780;0.292;2023-07-13T07:32:09;16.95;;;3.45;;
4696;SDS011;2362;50.780;0.292;2023-07-13T07:34:35;21.67;;;3.47;;
4696;SDS011;2362;50.780;0.292;2023-07-13T07:37:01;24.98;;;3.65;;
4696;SDS011;2362;50.780;0.292;2023-07-13T07:39:28;20.60;;;3.63;;
4696;SDS011;2362;50.780;0.292;2023-07-13T07:41:53;19.08;;;3.30;;
4696;SDS011;2362;50.780;0.292;2023-07-13T07:44:19;29.98;;;4.28;;
4696;SDS011;2362;50.780;0.292;2023-07-13T07:46:45;22.40;;;4.70;;
4696;SDS011;2362;50.780;0.292;2023-07-13T07:49:11;19.23;;;3.92;;
4696;SDS011;2362;50.780;0.292;2023-07-13T07:51:37;29.63;;;4.25;;
4696;SDS011;2362;50.780;0.292;2023-07-13T07:54:03;19.92;;;3.95;;
4696;SDS011;2362;50.780;0.292;2023-07-13T07:56:29;23.33;;;3.95;;
4696;SDS011;2362;50.780;0.292;2023-07-13T07:58:55;20.25;;;3.90;;
4696;SDS011;2362;50.780;0.292;2023-07-13T08:01:21;18.85;;;3.50;;
4696;SDS011;2362;50.780;0.292;2023-07-13T08:03:47;19.80;;;3.65;;
4696;SDS011;2362;50.780;0.292;2023-07-13T08:06:13;28.80;;;3.85;;
4696;SDS011;2362;50.780;0.292;2023-07-13T08:08:39;25.45;;;4.35;;
4696;SDS011;2362;50.780;0.292;2023-07-13T08:11:06;20.25;;;4.18;;
4696;SDS011;2362;50.780;0.292;2023-07-13T08:13:33;24.45;;;4.10;;
4696;SDS011;2362;50.780;0.292;2023-07-13T08:15:59;30.00;;;4.20;;
4696;SDS011;2362;50.780;0.292;2023-07-13T08:18:25;21.40;;;3.10;;
4696;SDS011;2362;50.780;0.292;2023-07-13T08:20:53;25.40;;;3.80;;
4696;SDS011;2362;50.780;0.292;2023-07-13T08:23:21;20.60;;;3.22;;
4696;SDS011;2362;50.780;0.292;2023-07-13T08:25:51;26.33;;;4.18;;
4696;SDS011;2362;50.780;0.292;2023-07-13T08:28:18;40.95;;;5.50;;
4696;SDS011;2362;50.780;0.292;2023-07-13T08:30:44;28.38;;;4.28;;
4696;SDS011;2362;50.780;0.292;2023-07-13T08:33:14;27.70;;;5.15;;
4696;SDS011;2362;50.780;0.292;2023-07-13T08:35:47;28.33;;;4.85;;
4696;SDS011;2362;50.780;0.292;2023-07-13T08:38:14;27.67;;;5.13;;
4696;SDS011;2362;50.780;0.292;2023-07-13T08:40:41;20.20;;;3.47;;
4696;SDS011;2362;50.780;0.292;2023-07-13T08:43:18;24.42;;;4.30;;
4696;SDS011;2362;50.780;0.292;2023-07-13T08:45:51;19.30;;;3.58;;
4696;SDS011;2362;50.780;0.292;2023-07-13T08:48:23;25.88;;;3.83;;
4696;SDS011;2362;50.780;0.292;2023-07-13T08:50:58;18.48;;;3.08;;
4696;SDS011;2362;50.780;0.292;2023-07-13T08:53:36;27.27;;;4.88;;
4696;SDS011;2362;50.780;0.292;2023-07-13T08:56:09;24.15;;;4.57;;
4696;SDS011;2362;50.780;0.292;2023-07-13T08:58:41;30.38;;;4.13;;
4696;SDS011;2362;50.780;0.292;2023-07-13T09:03:46;23.33;;;4.22;;
4696;SDS011;2362;50.780;0.292;2023-07-13T09:06:22;25.25;;;4.18;;
4696;SDS011;2362;50.780;0.292;2023-07-13T09:09:12;25.92;;;3.83;;
4696;SDS011;2362;50.780;0.292;2023-07-13T09:15:01;20.58;;;3.42;;
4696;SDS011;2362;50.780;0.292;2023-07-13T09:17:33;23.05;;;3.92;;
4696;SDS011;2362;50.780;0.292;2023-07-13T09:22:42;23.05;;;3.70;;
4696;SDS011;2362;50.780;0.292;2023-07-13T09:25:20;23.98;;;4.13;;
4696;SDS011;2362;50.780;0.292;2023-07-13T09:28:41;26.02;;;4.03;;
4696;SDS011;2362;50.780;0.292;2023-07-13T09:30:55;25.25;;;3.63;;
4696;SDS011;2362;50.780;0.292;2023-07-13T09:33:40;19.20;;;4.95;;
4696;SDS011;2362;50.780;0.292;2023-07-13T09:36:20;21.95;;;3.40;;
4696;SDS011;2362;50.780;0.292;2023-07-13T09:38:49;18.23;;;3.53;;
4696;SDS011;2362;50.780;0.292;2023-07-13T09:41:54;19.13;;;3.10;;
4696;SDS011;2362;50.780;0.292;2023-07-13T09:44:51;19.60;;;3.08;;
4696;SDS011;2362;50.780;0.292;2023-07-13T09:47:20;14.15;;;3.63;;
4696;SDS011;2362;50.780;0.292;2023-07-13T09:52:45;21.92;;;3.40;;
4696;SDS011;2362;50.780;0.292;2023-07-13T09:58:02;21.05;;;3.72;;
4696;SDS011;2362;50.780;0.292;2023-07-13T10:00:38;15.43;;;2.85;;
4696;SDS011;2362;50.780;0.292;2023-07-13T10:06:09;20.92;;;2.65;;
4696;SDS011;2362;50.780;0.292;2023-07-13T10:08:40;14.77;;;3.10;;
4696;SDS011;2362;50.780;0.292;2023-07-13T10:11:19;20.52;;;3.13;;
4696;SDS011;2362;50.780;0.292;2023-07-13T10:16:16;15.98;;;3.08;;
4696;SDS011;2362;50.780;0.292;2023-07-13T10:18:46;23.55;;;2.67;;
4696;SDS011;2362;50.780;0.292;2023-07-13T10:21:20;13.88;;;2.45;;
4696;SDS011;2362;50.780;0.292;2023-07-13T10:23:50;19.00;;;2.58;;
4696;SDS011;2362;50.780;0.292;2023-07-13T10:26:19;21.35;;;2.70;;
4696;SDS011;2362;50.780;0.292;2023-07-13T10:28:50;17.40;;;2.67;;
4696;SDS011;2362;50.780;0.292;2023-07-13T10:31:18;20.02;;;2.55;;
4696;SDS011;2362;50.780;0.292;2023-07-13T10:33:44;17.75;;;2.83;;
4696;SDS011;2362;50.780;0.292;2023-07-13T10:36:19;13.93;;;2.45;;
4696;SDS011;2362;50.780;0.292;2023-07-13T10:39:04;18.83;;;3.08;;
4696;SDS011;2362;50.780;0.292;2023-07-13T10:41:32;22.23;;;3.20;;
4696;SDS011;2362;50.780;0.292;2023-07-13T10:44:01;16.30;;;3.40;;
4696;SDS011;2362;50.780;0.292;2023-07-13T10:46:30;19.63;;;2.97;;
4696;SDS011;2362;50.780;0.292;2023-07-13T10:48:57;22.65;;;2.85;;
4696;SDS011;2362;50.780;0.292;2023-07-13T10:51:26;16.48;;;2.63;;
4696;SDS011;2362;50.780;0.292;2023-07-13T10:54:14;17.85;;;3.00;;
4696;SDS011;2362;50.780;0.292;2023-07-13T10:56:42;19.13;;;2.60;;
4696;SDS011;2362;50.780;0.292;2023-07-13T10:59:17;18.70;;;2.72;;
4696;SDS011;2362;50.780;0.292;2023-07-13T11:01:48;13.30;;;2.55;;
4696;SDS011;2362;50.780;0.292;2023-07-13T11:04:16;17.17;;;2.83;;
4696;SDS011;2362;50.780;0.292;2023-07-13T11:06:43;18.20;;;2.15;;
4696;SDS011;2362;50.780;0.292;2023-07-13T11:17:24;11.70;;;2.55;;
4696;SDS011;2362;50.780;0.292;2023-07-13T11:22:47;19.10;;;3.38;;
4696;SDS011;2362;50.780;0.292;2023-07-13T11:30:43;12.90;;;2.92;;
4696;SDS011;2362;50.780;0.292;2023-07-13T11:33:20;22.50;;;3.25;;
4696;SDS011;2362;50.780;0.292;2023-07-13T11:36:06;21.33;;;3.22;;
4696;SDS011;2362;50.780;0.292;2023-07-13T11:38:39;12.30;;;2.03;;
4696;SDS011;2362;50.780;0.292;2023-07-13T11:41:20;14.00;;;2.30;;
4696;SDS011;2362;50.780;0.292;2023-07-13T11:43:50;13.98;;;2.58;;
4696;SDS011;2362;50.780;0.292;2023-07-13T11:46:22;18.10;;;3.30;;
4696;SDS011;2362;50.780;0.292;2023-07-13T11:48:50;18.15;;;2.85;;
4696;SDS011;2362;50.780;0.292;2023-07-13T11:51:37;14.63;;;2.67;;
4696;SDS011;2362;50.780;0.292;2023-07-13T11:54:05;14.70;;;2.65;;
4696;SDS011;2362;50.780;0.292;2023-07-13T11:56:41;13.40;;;2.90;;
4696;SDS011;2362;50.780;0.292;2023-07-13T11:59:07;9.60;;;2.17;;
4696;SDS011;2362;50.780;0.292;2023-07-13T12:01:36;15.00;;;2.40;;
4696;SDS011;2362;50.780;0.292;2023-07-13T12:04:10;18.92;;;3.25;;
4696;SDS011;2362;50.780;0.292;2023-07-13T12:06:47;16.63;;;3.50;;
4696;SDS011;2362;50.780;0.292;2023-07-13T12:09:25;20.80;;;2.90;;
4696;SDS011;2362;50.780;0.292;2023-07-13T12:11:52;13.35;;;2.58;;
4696;SDS011;2362;50.780;0.292;2023-07-13T12:14:19;13.25;;;3.20;;
4696;SDS011;2362;50.780;0.292;2023-07-13T12:16:45;23.10;;;3.45;;
4696;SDS011;2362;50.780;0.292;2023-07-13T12:19:22;18.65;;;2.88;;
4696;SDS011;2362;50.780;0.292;2023-07-13T12:21:50;19.48;;;2.45;;
4696;SDS011;2362;50.780;0.292;2023-07-13T12:24:18;14.88;;;3.28;;
4696;SDS011;2362;50.780;0.292;2023-07-13T12:27:00;11.77;;;2.50;;
4696;SDS011;2362;50.780;0.292;2023-07-13T12:29:29;32.00;;;4.38;;
4696;SDS011;2362;50.780;0.292;2023-07-13T12:31:56;19.52;;;3.78;;
4696;SDS011;2362;50.780;0.292;2023-07-13T12:34:22;13.73;;;3.25;;
4696;SDS011;2362;50.780;0.292;2023-07-13T12:39:27;23.67;;;3.28;;
4696;SDS011;2362;50.780;0.292;2023-07-13T12:45:11;14.55;;;2.70;;
4696;SDS011;2362;50.780;0.292;2023-07-13T12:47:41;24.45;;;3.13;;
4696;SDS011;2362;50.780;0.292;2023-07-13T12:50:12;21.38;;;2.58;;
4696;SDS011;2362;50.780;0.292;2023-07-13T12:52:51;19.30;;;3.65;;
4696;SDS011;2362;50.780;0.292;2023-07-13T12:55:20;11.20;;;2.00;;
4696;SDS011;2362;50.780;0.292;2023-07-13T12:57:53;20.10;;;2.90;;
4696;SDS011;2362;50.780;0.292;2023-07-13T13:03:07;19.10;;;2.50;;
4696;SDS011;2362;50.780;0.292;2023-07-13T13:05:46;18.25;;;2.95;;
4696;SDS011;2362;50.780;0.292;2023-07-13T13:08:12;20.42;;;3.30;;
4696;SDS011;2362;50.780;0.292;2023-07-13T13:10:40;18.08;;;3.20;;
4696;SDS011;2362;50.780;0.292;2023-07-13T13:13:06;20.00;;;3.05;;
4696;SDS011;2362;50.780;0.292;2023-07-13T13:15:33;22.17;;;3.85;;
4696;SDS011;2362;50.780;0.292;2023-07-13T13:17:59;26.73;;;4.00;;
4696;SDS011;2362;50.780;0.292;2023-07-13T13:20:25;22.67;;;4.03;;
4696;SDS011;2362;50.780;0.292;2023-07-13T13:22:53;17.58;;;3.42;;
4696;SDS011;2362;50.780;0.292;2023-07-13T13:25:20;21.73;;;4.03;;
4696;SDS011;2362;50.780;0.292;2023-07-13T13:27:47;28.63;;;4.15;;
4696;SDS011;2362;50.780;0.292;2023-07-13T13:30:16;27.02;;;3.88;;
4696;SDS011;2362;50.780;0.292;2023-07-13T13:32:43;20.67;;;4.15;;
4696;SDS011;2362;50.780;0.292;2023-07-13T13:35:18;25.83;;;3.28;;
4696;SDS011;2362;50.780;0.292;2023-07-13T13:37:45;18.40;;;4.95;;
4696;SDS011;2362;50.780;0.292;2023-07-13T13:40:13;30.50;;;5.18;;
4696;SDS011;2362;50.780;0.292;2023-07-13T13:42:43;26.50;;;3.72;;
4696;SDS011;2362;50.780;0.292;2023-07-13T13:45:09;18.70;;;3.83;;
4696;SDS011;2362;50.780;0.292;2023-07-13T13:47:35;16.27;;;3.35;;
4696;SDS011;2362;50.780;0.292;2023-07-13T13:50:07;26.85;;;4.05;;
4696;SDS011;2362;50.780;0.292;2023-07-13T13:52:44;12.80;;;2.88;;
4696;SDS011;2362;50.780;0.292;2023-07-13T13:55:13;17.27;;;2.47;;
4696;SDS011;2362;50.780;0.292;2023-07-13T13:57:39;13.90;;;2.80;;
4696;SDS011;2362;50.780;0.292;2023-07-13T14:00:05;17.95;;;3.30;;
4696;SDS011;2362;50.780;0.292;2023-07-13T14:02:34;11.95;;;2.78;;
4696;SDS011;2362;50.780;0.292;2023-07-13T14:05:03;10.70;;;2.50;;
4696;SDS011;2362;50.780;0.292;2023-07-13T14:07:33;13.38;;;2.33;;
4696;SDS011;2362;50.780;0.292;2023-07-13T14:09:58;11.23;;;2.80;;
4696;SDS011;2362;50.780;0.292;2023-07-13T14:12:26;17.25;;;3.47;;
4696;SDS011;2362;50.780;0.292;2023-07-13T14:14:54;16.42;;;2.67;;
4696;SDS011;2362;50.780;0.292;2023-07-13T14:17:26;20.00;;;2.85;;
4696;SDS011;2362;50.780;0.292;2023-07-13T14:19:53;13.00;;;2.33;;
4696;SDS011;2362;50.780;0.292;2023-07-13T14:22:25;13.25;;;2.42;;
4696;SDS011;2362;50.780;0.292;2023-07-13T14:24:54;20.50;;;3.33;;
4696;SDS011;2362;50.780;0.292;2023-07-13T14:27:22;12.38;;;2.55;;
4696;SDS011;2362;50.780;0.292;2023-07-13T14:29:49;9.15;;;2.33;;
4696;SDS011;2362;50.780;0.292;2023-07-13T14:32:16;14.23;;;2.55;;
4696;SDS011;2362;50.780;0.292;2023-07-13T14:34:41;16.60;;;3.22;;
4696;SDS011;2362;50.780;0.292;2023-07-13T14:37:11;8.68;;;2.70;;
4696;SDS011;2362;50.780;0.292;2023-07-13T14:39:39;8.57;;;2.67;;
4696;SDS011;2362;50.780;0.292;2023-07-13T14:42:08;11.50;;;3.10;;
4696;SDS011;2362;50.780;0.292;2023-07-13T14:44:34;11.23;;;3.33;;
4696;SDS011;2362;50.780;0.292;2023-07-13T14:47:01;12.43;;;2.53;;
4696;SDS011;2362;50.780;0.292;2023-07-13T14:49:30;14.18;;;3.65;;
4696;SDS011;2362;50.780;0.292;2023-07-13T14:51:59;16.50;;;3.25;;
4696;SDS011;2362;50.780;0.292;2023-07-13T14:54:28;26.67;;;5.15;;
4696;SDS011;2362;50.780;0.292;2023-07-13T14:56:54;14.52;;;3.10;;
4696;SDS011;2362;50.780;0.292;2023-07-13T14:59:20;15.43;;;2.80;;
4696;SDS011;2362;50.780;0.292;2023-07-13T15:01:46;25.63;;;3.38;;
4696;SDS011;2362;50.780;0.292;2023-07-13T15:04:13;16.23;;;4.05;;
4696;SDS011;2362;50.780;0.292;2023-07-13T15:06:56;16.77;;;2.75;;
4696;SDS011;2362;50.780;0.292;2023-07-13T15:09:24;23.40;;;4.07;;
4696;SDS011;2362;50.780;0.292;2023-07-13T15:11:52;16.95;;;3.42;;
4696;SDS011;2362;50.780;0.292;2023-07-13T15:14:19;22.50;;;4.95;;
4696;SDS011;2362;50.780;0.292;2023-07-13T15:16:46;10.98;;;2.35;;
4696;SDS011;2362;50.780;0.292;2023-07-13T15:19:14;16.10;;;3.00;;
4696;SDS011;2362;50.780;0.292;2023-07-13T15:21:41;14.88;;;3.67;;
4696;SDS011;2362;50.780;0.292;2023-07-13T15:24:08;12.65;;;2.50;;
4696;SDS011;2362;50.780;0.292;2023-07-13T15:26:35;10.48;;;2.67;;
4696;SDS011;2362;50.780;0.292;2023-07-13T15:29:02;14.32;;;3.00;;
4696;SDS011;2362;50.780;0.292;2023-07-13T15:31:28;17.63;;;3.75;;
4696;SDS011;2362;50.780;0.292;2023-07-13T15:33:56;14.13;;;3.17;;
4696;SDS011;2362;50.780;0.292;2023-07-13T15:36:23;16.90;;;2.92;;
4696;SDS011;2362;50.780;0.292;2023-07-13T15:38:53;20.85;;;2.65;;
4696;SDS011;2362;50.780;0.292;2023-07-13T15:43:48;15.68;;;3.80;;
4696;SDS011;2362;50.780;0.292;2023-07-13T15:46:17;13.50;;;3.92;;
4696;SDS011;2362;50.780;0.292;2023-07-13T15:48:43;21.45;;;3.55;;
4696;SDS011;2362;50.780;0.292;2023-07-13T15:51:11;16.65;;;3.25;;
4696;SDS011;2362;50.780;0.292;2023-07-13T15:53:43;19.88;;;2.95;;
4696;SDS011;2362;50.780;0.292;2023-07-13T15:56:28;19.38;;;2.90;;
4696;SDS011;2362;50.780;0.292;2023-07-13T15:58:55;16.85;;;3.53;;